Strona główna
METAR-TAF:

METAR-TAF

Lotnisko :

Port lotniczy Puerto Princesa

Puerto Princesa, Filipiny

Szerokość geograficzna: 09-44-32N, Długość geograficzna: 118-45-31E, wysokość: 22 m

Aktualna obserwacja pogody

Raport powstał 20 minut temu, godzina 04:00 UTC
Wiatr 10 kt od wschód
Temperatura 30°C
Wilgotność 75%
Ciśnienie 1010 hPa
Widzialność 10 km lub więcej
Mało chmury na wysokości 1900 ft
Przerywane chmury na wysokości 8000 ft

METAR: RPVP 110400Z 09010KT 9999 FEW019 BKN080 30/25 Q1010 RMK A2983

czas: 12:20 (04:20 UTC)

Prognoza

Prognoza ważna od 11 godzina 00 UTC do 11 godzina 24 UTC
Wiatr 8 kt od wschodnio-północny wschód
Widzialność 10 km lub więcej
Mało chmury na wysokości 1900 ft
Rozproszone chmury na wysokości 25000 ft
Przejściowo
od 11 godzina 06 UTC do 11 godzina 12 UTC
Wiatr 12 kt od wschód
Mało chmury na wysokości 1700 ft, Cumulonimbus.
Przerywane chmury na wysokości 8000 ft
słaby przelotny opad deszczu

TAF: RPVP 1100/1124 07008KT 9999 FEW019 SCT250 TEMPO 1106/1112 09012KT -SHRA FEW017CB BKN080

Obserwacja i prognoza pogody dla ponad 4000 lotnisk (raport METAR i TAF).

Dostępne stacje oznaczono żółtymi i czerwonymi punktami na mapie.

Najedź kursorem aby zobaczyć nazwę stacji.

Kliknij aby zobaczyć obserwacje i prognozy pogody.

Aby zmienić mapę: kliknij na zielony przycisk z czarnym krzyżykiem, aby powiększyć; na zielony przycisk z myślnikiem, aby pomniejszyć; na zielone strzałki, aby przejść do map sąsiednich.


METAR-TAF: